Time;durP1;ratioP1;P1;durP2;ratioP2;P2;SDS_P1;SDS_P2;PMS_P1;PMS_P2;Temp;Humidity;BMP_temperature;BMP_pressure;BME280_temperature;BME280_humidity;BME280_pressure;Samples;Min_cycle;Max_cycle;Signal;HPM_P1;HPM_P2
2022/05/08 00:02:01;;;;;;;27.00;24.40;;;;;;;11.88;74.58;98454.19;104726;1290;22659;-81
2022/05/08 00:04:29;;;;;;;27.50;24.80;;;;;;;11.92;74.80;98450.77;104931;1289;22749;-82
2022/05/08 00:06:58;;;;;;;30.50;27.80;;;;;;;11.95;74.93;98451.65;104862;1291;23986;-81
2022/05/08 00:09:25;;;;;;;34.30;26.70;;;;;;;11.96;74.68;98454.70;104836;1289;22832;-80
2022/05/08 00:11:53;;;;;;;24.80;22.50;;;;;;;11.93;74.73;98451.57;104931;1289;25326;-81
2022/05/08 00:14:22;;;;;;;24.60;22.30;;;;;;;11.90;74.75;98450.21;104894;1289;22671;-81
2022/05/08 00:16:50;;;;;;;23.90;21.70;;;;;;;11.90;74.78;98448.86;104899;1289;22722;-80
2022/05/08 00:19:18;;;;;;;24.40;21.80;;;;;;;11.91;75.02;98444.42;104771;1288;24456;-80
2022/05/08 00:21:46;;;;;;;26.50;24.10;;;;;;;11.92;74.90;98442.62;104802;1289;24109;-80
2022/05/08 00:24:14;;;;;;;26.90;24.20;;;;;;;11.91;75.07;98441.29;104879;1288;25381;-80
2022/05/08 00:26:42;;;;;;;27.50;25.10;;;;;;;11.88;75.21;98439.11;104984;1289;22570;-79
2022/05/08 00:29:11;;;;;;;24.30;22.00;;;;;;;11.85;75.17;98432.98;105054;1289;23088;-82
2022/05/08 00:31:42;;;;;;;25.20;22.70;;;;;;;11.83;75.24;98433.59;104905;1288;25386;-79
2022/05/08 00:34:10;;;;;;;24.40;22.30;;;;;;;11.84;75.28;98436.38;105013;1289;22571;-79
2022/05/08 00:36:39;;;;;;;23.70;21.60;;;;;;;11.84;75.38;98434.55;105158;1289;22810;-82
2022/05/08 00:39:07;;;;;;;25.40;23.00;;;;;;;11.86;75.57;98434.34;105064;1289;24814;-82
2022/05/08 00:41:35;;;;;;;25.40;22.90;;;;;;;11.86;75.76;98431.54;104832;1289;22695;-81
2022/05/08 00:44:05;;;;;;;26.70;24.40;;;;;;;11.87;75.75;98433.89;104978;1288;22627;-82
2022/05/08 00:46:33;;;;;;;27.10;24.50;;;;;;;11.89;75.87;98430.56;104912;1288;24442;-83
2022/05/08 00:49:01;;;;;;;26.30;23.90;;;;;;;11.91;75.87;98429.51;104838;1288;22648;-82
2022/05/08 00:51:31;;;;;;;24.70;22.40;;;;;;;11.94;75.90;98425.73;104829;1291;22584;-83
2022/05/08 00:54:03;;;;;;;27.70;24.80;;;;;;;11.94;75.86;98427.36;104826;1288;22663;-82
2022/05/08 00:56:31;;;;;;;26.60;24.10;;;;;;;11.94;75.92;98426.33;104913;1290;22704;-81
2022/05/08 00:59:00;;;;;;;24.00;21.80;;;;;;;11.93;75.87;98428.99;104858;1290;22625;-79
2022/05/08 01:01:28;;;;;;;29.10;26.30;;;;;;;11.93;75.84;98429.15;104912;1290;22631;-82
2022/05/08 01:03:56;;;;;;;26.90;24.30;;;;;;;11.91;76.02;98428.81;104920;1289;22870;-81
2022/05/08 01:06:24;;;;;;;28.30;25.40;;;;;;;11.88;76.06;98428.43;104837;1290;22552;-82
2022/05/08 01:08:52;;;;;;;25.80;23.50;;;;;;;11.84;76.29;98426.45;104867;1290;22580;-81
2022/05/08 01:11:20;;;;;;;25.50;22.90;;;;;;;11.85;76.34;98426.50;104813;1289;22632;-81
2022/05/08 01:13:48;;;;;;;25.50;23.10;;;;;;;11.87;76.39;98424.01;104862;1290;25472;-82
2022/05/08 01:16:20;;;;;;;25.70;23.40;;;;;;;11.89;76.35;98423.45;104863;1289;25436;-80
2022/05/08 01:18:50;;;;;;;27.10;24.40;;;;;;;11.88;76.31;98423.35;104853;1288;22631;-82
2022/05/08 01:21:23;;;;;;;27.00;24.50;;;;;;;11.83;76.50;98420.15;104881;1289;24342;-82
2022/05/08 01:23:51;;;;;;;31.40;28.50;;;;;;;11.80;76.53;98423.85;104908;1289;24495;-81
2022/05/08 01:26:23;;;;;;;27.50;24.60;;;;;;;11.80;76.68;98424.92;104916;1288;25408;-81
2022/05/08 01:28:52;;;;;;;27.90;25.10;;;;;;;11.82;76.73;98421.58;104927;1288;22645;-82
2022/05/08 01:31:20;;;;;;;27.20;24.70;;;;;;;11.82;76.63;98422.48;104865;1289;23223;-81
2022/05/08 01:33:48;;;;;;;27.30;24.90;;;;;;;11.79;76.75;98421.77;104919;1289;24449;-80
2022/05/08 01:36:16;;;;;;;28.90;26.10;;;;;;;11.76;76.78;98417.55;104845;1290;25391;-81
2022/05/08 01:38:44;;;;;;;30.30;27.20;;;;;;;11.74;76.90;98418.67;104906;1289;25389;-81
2022/05/08 01:41:12;;;;;;;26.90;23.60;;;;;;;11.73;76.80;98419.65;104899;1289;22611;-81
2022/05/08 01:43:41;;;;;;;26.80;24.10;;;;;;;11.70;76.71;98417.43;104926;1289;24241;-82
2022/05/08 01:46:10;;;;;;;27.00;24.30;;;;;;;11.66;76.91;98421.23;105410;1289;25325;-79
2022/05/08 01:48:39;;;;;;;29.70;27.00;;;;;;;11.62;77.13;98420.18;106914;1288;22574;-80
2022/05/08 01:51:07;;;;;;;31.70;28.60;;;;;;;11.61;77.18;98421.02;107613;1290;22616;-80
2022/05/08 01:53:35;;;;;;;30.50;27.30;;;;;;;11.59;77.18;98422.45;106515;1288;22579;-81
2022/05/08 01:56:07;;;;;;;29.50;26.60;;;;;;;11.56;77.00;98419.36;105650;1289;23166;-80
2022/05/08 01:58:37;;;;;;;30.20;27.30;;;;;;;11.55;77.30;98421.65;105325;1289;22705;-82
2022/05/08 02:01:08;;;;;;;35.40;31.30;;;;;;;11.57;77.58;98419.34;104971;1288;22588;-79
2022/05/08 02:03:37;;;;;;;37.50;33.80;;;;;;;11.56;77.57;98417.74;105017;1288;25267;-83
2022/05/08 02:06:05;;;;;;;32.50;29.00;;;;;;;11.53;77.71;98415.67;105103;1288;23236;-78
2022/05/08 02:08:34;;;;;;;34.30;30.70;;;;;;;11.53;77.72;98413.85;104937;1288;25607;-82
2022/05/08 02:11:03;;;;;;;33.90;30.30;;;;;;;11.53;77.66;98414.39;104959;1288;23999;-83
2022/05/08 02:13:31;;;;;;;33.90;30.20;;;;;;;11.53;77.68;98413.48;105179;1289;22675;-82
2022/05/08 02:15:59;;;;;;;35.90;32.30;;;;;;;11.52;77.69;98415.48;105135;1289;24291;-81
2022/05/08 02:18:27;;;;;;;38.90;35.00;;;;;;;11.47;77.70;98413.77;104953;1289;24296;-84
2022/05/08 02:20:55;;;;;;;35.80;32.10;;;;;;;11.40;77.79;98413.88;104894;1289;22755;-82
2022/05/08 02:23:22;;;;;;;33.20;29.90;;;;;;;11.35;77.73;98423.53;104854;1288;25522;-82
2022/05/08 02:25:50;;;;;;;33.60;30.10;;;;;;;11.32;77.85;98422.95;104894;1289;25373;-80
2022/05/08 02:28:18;;;;;;;36.80;31.90;;;;;;;11.28;78.06;98420.87;104867;1289;25415;-83
2022/05/08 02:30:47;;;;;;;38.00;34.20;;;;;;;11.26;78.14;98419.34;104971;1288;23985;-81
2022/05/08 02:33:15;;;;;;;45.00;40.70;;;;;;;11.24;78.25;98417.42;104857;1288;22586;-81
2022/05/08 02:35:43;;;;;;;41.40;37.20;;;;;;;11.21;78.26;98417.16;104781;1289;22630;-82
2022/05/08 02:38:10;;;;;;;45.40;40.80;;;;;;;11.18;78.47;98414.55;104818;1288;22748;-82
2022/05/08 02:40:38;;;;;;;40.00;36.00;;;;;;;11.19;78.47;98418.62;104809;1288;22781;-80
2022/05/08 02:43:06;;;;;;;39.50;35.30;;;;;;;11.25;78.80;98417.26;104853;1288;25299;-82
2022/05/08 02:45:34;;;;;;;39.70;33.50;;;;;;;11.25;78.57;98417.41;104807;1288;23030;-81
2022/05/08 02:48:02;;;;;;;41.90;37.60;;;;;;;11.19;78.30;98418.20;104805;1289;24405;-82
2022/05/08 02:50:30;;;;;;;42.00;37.90;;;;;;;11.09;78.25;98426.05;104800;1288;22899;-81
2022/05/08 02:52:58;;;;;;;37.60;33.60;;;;;;;10.98;78.03;98424.98;104902;1289;22875;-82
2022/05/08 03:01:05;;;;;;;42.60;38.20;;;;;;;10.69;78.26;98430.81;104826;1288;22507;-81
2022/05/08 03:03:34;;;;;;;40.40;36.40;;;;;;;10.64;78.61;98432.92;104957;1288;22626;-82
2022/05/08 03:06:02;;;;;;;38.80;34.60;;;;;;;10.60;78.63;98429.08;104951;1289;22563;-81
2022/05/08 03:08:30;;;;;;;41.10;37.00;;;;;;;10.54;78.69;98427.41;104812;1288;24451;-80
2022/05/08 03:13:45;;;;;;;34.70;31.20;;;;;;;10.41;78.72;98431.48;104937;1288;25434;-80
2022/05/08 03:16:13;;;;;;;37.10;33.10;;;;;;;10.37;78.91;98435.89;104830;1288;22576;-78
2022/05/08 03:18:41;;;;;;;38.20;34.40;;;;;;;10.30;78.96;98431.52;104842;1290;22580;-81
2022/05/08 03:21:10;;;;;;;40.50;36.50;;;;;;;10.27;79.28;98433.33;104918;1289;22551;-81
2022/05/08 03:23:42;;;;;;;38.20;34.50;;;;;;;10.24;79.39;98435.27;105009;1291;24304;-80
2022/05/08 03:26:12;;;;;;;39.80;35.70;;;;;;;10.21;79.24;98436.20;105023;1288;25309;-80
2022/05/08 03:28:42;;;;;;;39.00;35.00;;;;;;;10.20;79.37;98434.66;104949;1288;26637;-81
2022/05/08 03:31:10;;;;;;;41.60;37.50;;;;;;;10.19;79.34;98438.16;104917;1288;22579;-82
2022/05/08 03:33:39;;;;;;;43.60;39.40;;;;;;;10.21;79.76;98439.77;104968;1288;25497;-82
2022/05/08 03:36:11;;;;;;;43.50;39.30;;;;;;;10.18;79.60;98437.79;104808;1289;24018;-82
2022/05/08 03:38:41;;;;;;;38.10;34.40;;;;;;;10.14;79.38;98439.98;105052;1288;24243;-79
2022/05/08 03:41:09;;;;;;;39.70;35.60;;;;;;;10.09;79.66;98442.02;104995;1289;22570;-81
2022/05/08 03:43:36;;;;;;;40.10;35.90;;;;;;;10.07;79.49;98446.23;104885;1288;22703;-80
2022/05/08 03:46:04;;;;;;;40.60;36.70;;;;;;;10.06;80.07;98444.79;105077;1288;24329;-80
2022/05/08 03:48:34;;;;;;;42.10;37.70;;;;;;;10.07;79.96;98448.39;104957;1288;24157;-83
2022/05/08 03:51:03;;;;;;;42.10;38.00;;;;;;;10.05;79.92;98452.39;104903;1288;24535;-83
2022/05/08 03:53:31;;;;;;;40.30;36.50;;;;;;;10.02;80.19;98456.98;104944;1288;25372;-82
2022/05/08 03:56:01;;;;;;;38.80;34.90;;;;;;;10.00;80.44;98460.06;104985;1288;22679;-82
2022/05/08 03:58:30;;;;;;;38.80;34.70;;;;;;;10.02;80.48;98462.48;104935;1288;22668;-81
2022/05/08 04:00:59;;;;;;;40.80;37.00;;;;;;;10.07;80.84;98460.78;104952;1288;22728;-81
2022/05/08 04:03:26;;;;;;;41.80;37.50;;;;;;;10.14;80.64;98463.27;104839;1288;22790;-80
2022/05/08 04:05:54;;;;;;;42.40;38.20;;;;;;;10.20;80.97;98463.78;104842;1288;22680;-79
2022/05/08 04:08:22;;;;;;;42.80;38.70;;;;;;;10.28;80.96;98462.13;104767;1288;26005;-80
2022/05/08 04:10:50;;;;;;;48.50;43.90;;;;;;;10.36;81.41;98464.49;104827;1288;22568;-80
2022/05/08 04:13:18;;;;;;;40.70;36.80;;;;;;;10.47;81.10;98464.18;104559;1288;24454;-81
2022/05/08 04:16:21;;;;;;;38.10;34.50;;;;;;;10.58;81.37;98471.83;104827;1288;24318;-82
2022/05/08 04:18:40;;;;;;;41.00;37.20;;;;;;;10.69;81.34;98466.88;104816;1288;25384;-81
2022/05/08 04:21:08;;;;;;;43.50;39.40;;;;;;;10.75;81.30;98473.66;104822;1289;23993;-80
2022/05/08 04:26:23;;;;;;;42.60;38.60;;;;;;;10.86;81.32;98478.45;104840;1288;24425;-83
2022/05/08 04:28:51;;;;;;;41.40;37.00;;;;;;;10.98;81.74;98481.18;104825;1288;22718;-81
2022/05/08 04:31:22;;;;;;;46.60;42.20;;;;;;;11.10;81.52;98485.09;104821;1288;22559;-81
2022/05/08 04:33:51;;;;;;;48.60;43.90;;;;;;;11.20;81.47;98487.29;104851;1288;22721;-80
2022/05/08 04:36:19;;;;;;;49.60;45.10;;;;;;;11.28;81.65;98490.48;104886;1288;25437;-79
2022/05/08 04:38:47;;;;;;;44.50;40.40;;;;;;;11.37;81.57;98492.80;104870;1288;22573;-82
2022/05/08 04:41:15;;;;;;;45.20;40.90;;;;;;;11.47;81.60;98491.92;104908;1288;22597;-79
2022/05/08 04:43:44;;;;;;;48.00;43.50;;;;;;;11.54;81.39;98492.95;104930;1288;22742;-82
2022/05/08 04:46:12;;;;;;;51.00;46.40;;;;;;;11.63;81.56;98491.33;104775;1288;24395;-82
2022/05/08 04:48:43;;;;;;;59.70;53.70;;;;;;;11.74;81.64;98493.23;104813;1288;24435;-81
2022/05/08 04:51:11;;;;;;;53.80;48.90;;;;;;;11.81;81.63;98491.36;104809;1288;22721;-81
2022/05/08 04:53:38;;;;;;;53.80;48.70;;;;;;;11.90;81.68;98496.93;104751;1290;22561;-82
2022/05/08 04:56:06;;;;;;;53.00;47.90;;;;;;;11.99;81.82;98492.59;104828;1291;22569;-84
2022/05/08 04:58:34;;;;;;;50.30;45.50;;;;;;;12.13;82.00;98493.02;104898;1288;23406;-80
2022/05/08 05:01:02;;;;;;;55.60;50.20;;;;;;;12.27;81.75;98493.17;104883;1288;22743;-81
2022/05/08 05:03:30;;;;;;;61.40;55.60;;;;;;;12.37;81.62;98497.98;104774;1288;22563;-80
2022/05/08 05:05:58;;;;;;;65.90;60.10;;;;;;;12.44;81.57;98501.75;104849;1288;23005;-82
2022/05/08 05:08:26;;;;;;;70.50;64.00;;;;;;;12.51;81.54;98500.62;104897;1289;24443;-81
2022/05/08 05:10:54;;;;;;;71.30;64.50;;;;;;;12.62;81.75;98498.00;104921;1288;25454;-80
2022/05/08 05:13:22;;;;;;;73.80;66.90;;;;;;;12.74;81.82;98495.55;104909;1288;23245;-83
2022/05/08 05:15:51;;;;;;;72.90;66.50;;;;;;;12.88;81.75;98497.09;104950;1288;23314;-82
2022/05/08 05:18:19;;;;;;;75.70;69.00;;;;;;;13.00;81.68;98504.02;104956;1288;22720;-84
2022/05/08 05:20:47;;;;;;;73.20;66.50;;;;;;;13.06;81.56;98505.23;104932;1289;22686;-82
2022/05/08 05:23:15;;;;;;;71.50;65.00;;;;;;;13.09;81.23;98505.14;104922;1288;22590;-82
2022/05/08 05:25:42;;;;;;;71.50;64.80;;;;;;;13.15;81.48;98503.77;105004;1290;25317;-81
2022/05/08 05:28:11;;;;;;;67.40;61.60;;;;;;;13.27;81.54;98504.48;105005;1288;23090;-82
2022/05/08 05:30:39;;;;;;;72.60;65.80;;;;;;;13.35;81.20;98505.84;104843;1291;25257;-82
2022/05/08 05:33:10;;;;;;;71.00;64.70;;;;;;;13.40;81.22;98506.48;105005;1288;25423;-82
2022/05/08 05:35:38;;;;;;;69.20;63.10;;;;;;;13.48;81.38;98511.60;104859;1288;23095;-83
2022/05/08 05:38:06;;;;;;;66.10;59.80;;;;;;;13.59;81.23;98511.69;104872;1288;22576;-82
2022/05/08 05:40:34;;;;;;;67.10;60.90;;;;;;;13.71;81.43;98510.63;104827;1288;22555;-81
2022/05/08 05:43:02;;;;;;;72.80;66.50;;;;;;;13.84;81.42;98511.41;104919;1288;22572;-82
2022/05/08 05:45:30;;;;;;;72.70;66.20;;;;;;;13.91;81.22;98513.48;104901;1288;24425;-83
2022/05/08 05:48:00;;;;;;;72.00;65.30;;;;;;;13.95;80.88;98516.11;104885;1288;25695;-81
2022/05/08 05:50:28;;;;;;;73.70;66.80;;;;;;;14.01;81.10;98516.29;104842;1288;22667;-83
2022/05/08 05:52:56;;;;;;;71.80;65.10;;;;;;;14.10;80.97;98516.20;104845;1289;23258;-83
2022/05/08 05:55:24;;;;;;;68.70;62.50;;;;;;;14.19;80.90;98518.77;104904;1288;24454;-82
2022/05/08 05:57:52;;;;;;;68.20;62.10;;;;;;;14.25;80.88;98521.48;104999;1288;22767;-82
2022/05/08 06:00:23;;;;;;;70.70;64.00;;;;;;;14.27;80.61;98522.20;104952;1288;24406;-80
2022/05/08 06:02:50;;;;;;;67.80;61.80;;;;;;;14.26;80.40;98526.94;105016;1290;25775;-81
2022/05/08 06:05:18;;;;;;;66.30;60.30;;;;;;;14.27;80.40;98522.59;105113;1288;22823;-81
2022/05/08 06:07:46;;;;;;;62.70;56.90;;;;;;;14.29;80.42;98524.86;105114;1288;22670;-81
2022/05/08 06:10:14;;;;;;;65.50;59.70;;;;;;;14.35;80.34;98524.43;105169;1288;24248;-81
2022/05/08 06:12:43;;;;;;;68.50;62.50;;;;;;;14.42;80.20;98526.11;105170;1288;22733;-83
2022/05/08 06:15:11;;;;;;;68.00;62.10;;;;;;;14.45;80.16;98526.16;104984;1288;25569;-82
2022/05/08 06:17:39;;;;;;;69.70;63.60;;;;;;;14.48;80.30;98522.84;104965;1288;25333;-81
2022/05/08 06:20:08;;;;;;;67.00;60.90;;;;;;;14.51;80.10;98525.87;104972;1288;23115;-82
2022/05/08 06:22:36;;;;;;;68.70;62.40;;;;;;;14.55;79.81;98529.27;104875;1288;25647;-80
2022/05/08 06:25:04;;;;;;;67.50;61.00;;;;;;;14.59;80.00;98527.14;104918;1288;22724;-83
2022/05/08 06:27:32;;;;;;;67.40;61.30;;;;;;;14.67;80.13;98530.19;104989;1290;22673;-82
2022/05/08 06:30:00;;;;;;;61.90;56.30;;;;;;;14.77;79.80;98531.57;105068;1290;22573;-81
2022/05/08 06:32:30;;;;;;;61.60;55.80;;;;;;;14.87;79.97;98528.77;105202;1288;22710;-81
2022/05/08 06:35:18;;;;;;;58.50;53.30;;;;;;;14.97;79.45;98531.92;105267;1288;22561;-81
2022/05/08 06:37:45;;;;;;;53.50;48.50;;;;;;;15.05;79.54;98528.67;105301;1288;22595;-81
2022/05/08 06:40:13;;;;;;;47.50;43.20;;;;;;;15.18;79.34;98528.55;105376;1288;22863;-82
2022/05/08 06:42:41;;;;;;;46.30;42.10;;;;;;;15.34;78.93;98530.39;105322;1288;22570;-81
2022/05/08 06:45:09;;;;;;;44.40;40.50;;;;;;;15.45;78.60;98527.58;105384;1288;25451;-81
2022/05/08 06:47:37;;;;;;;43.50;39.60;;;;;;;15.58;78.59;98528.95;105323;1288;22875;-83
2022/05/08 06:50:06;;;;;;;43.00;39.20;;;;;;;15.67;78.03;98528.54;105390;1288;22577;-82
2022/05/08 06:52:34;;;;;;;44.20;40.30;;;;;;;15.80;78.26;98529.26;105388;1288;22547;-82
2022/05/08 06:55:02;;;;;;;43.70;39.90;;;;;;;15.95;77.67;98528.76;105470;1288;25311;-81
2022/05/08 06:57:30;;;;;;;42.30;38.60;;;;;;;16.05;77.15;98529.46;105352;1288;25485;-81
2022/05/08 07:02:45;;;;;;;39.20;35.90;;;;;;;16.22;76.62;98525.34;105053;1288;25424;-82
2022/05/08 07:05:13;;;;;;;37.70;34.30;;;;;;;16.30;76.17;98526.95;105068;1288;22685;-82
2022/05/08 07:07:41;;;;;;;41.30;37.80;;;;;;;16.38;75.97;98529.82;106799;1288;22511;-82
2022/05/08 07:10:10;;;;;;;45.00;41.00;;;;;;;16.38;75.35;98530.55;108055;1288;22627;-82
2022/05/08 07:12:38;;;;;;;38.00;34.50;;;;;;;16.43;75.11;98531.29;107687;1290;22645;-81
2022/05/08 07:15:07;;;;;;;39.30;35.70;;;;;;;16.45;74.83;98531.22;105731;1288;25335;-81
2022/05/08 07:17:35;;;;;;;38.00;34.50;;;;;;;16.49;74.84;98531.02;105179;1289;22541;-81
2022/05/08 07:20:04;;;;;;;37.80;34.40;;;;;;;16.58;74.50;98529.95;105622;1288;22600;-83
2022/05/08 07:22:35;;;;;;;37.60;34.50;;;;;;;16.64;73.95;98530.80;105545;1288;22559;-81
2022/05/08 07:25:03;;;;;;;36.90;33.70;;;;;;;16.70;73.87;98528.64;105101;1288;22845;-84
2022/05/08 07:27:36;;;;;;;34.80;31.70;;;;;;;16.77;73.57;98527.37;105033;1288;23963;-82
2022/05/08 07:30:04;;;;;;;35.70;32.00;;;;;;;16.82;73.16;98526.55;105212;1288;25371;-81
2022/05/08 07:32:36;;;;;;;34.00;30.80;;;;;;;16.90;73.01;98531.16;105176;1288;22686;-82
2022/05/08 07:37:51;;;;;;;27.30;24.50;;;;;;;17.10;72.37;98535.59;105181;1288;22588;-83
2022/05/08 07:40:19;;;;;;;28.30;25.60;;;;;;;17.16;71.83;98535.21;105254;1288;22667;-83
2022/05/08 07:42:46;;;;;;;27.00;24.30;;;;;;;17.26;71.69;98534.76;105258;1288;24329;-82
2022/05/08 07:45:15;;;;;;;25.10;22.50;;;;;;;17.37;71.43;98531.92;105322;1288;23965;-82
2022/05/08 07:47:43;;;;;;;28.10;25.50;;;;;;;17.44;70.63;98538.13;105222;1288;25474;-82
2022/05/08 07:50:10;;;;;;;29.00;26.50;;;;;;;17.47;69.68;98538.88;105248;1288;22698;-82
2022/05/08 07:52:41;;;;;;;26.90;24.20;;;;;;;17.52;70.15;98537.96;105310;1288;22582;-83
2022/05/08 07:55:09;;;;;;;28.50;25.90;;;;;;;17.61;70.04;98539.36;105356;1288;22675;-82
2022/05/08 07:57:37;;;;;;;29.60;26.20;;;;;;;17.70;69.67;98538.95;105245;1288;22566;-81
2022/05/08 08:00:07;;;;;;;26.00;23.60;;;;;;;17.78;68.56;98542.04;105265;1288;25434;-82
2022/05/08 08:02:41;;;;;;;26.20;23.50;;;;;;;17.80;68.37;98539.94;105160;1288;22583;-82
2022/05/08 08:05:10;;;;;;;25.40;22.90;;;;;;;17.85;68.30;98541.10;105208;1288;22626;-81
2022/05/08 08:07:39;;;;;;;24.60;21.80;;;;;;;17.91;67.76;98538.75;105181;1288;24378;-81
2022/05/08 08:10:07;;;;;;;24.00;21.90;;;;;;;17.97;67.87;98538.52;105125;1288;23080;-84
2022/05/08 08:12:35;;;;;;;26.00;23.50;;;;;;;18.03;67.72;98538.98;105155;1288;22604;-81
2022/05/08 08:15:04;;;;;;;22.40;20.20;;;;;;;18.10;67.80;98541.95;105132;1288;23719;-82
2022/05/08 08:17:32;;;;;;;19.20;17.40;;;;;;;18.21;67.36;98543.13;105354;1288;22642;-82
2022/05/08 08:20:01;;;;;;;18.40;16.70;;;;;;;18.33;67.09;98546.84;105345;1288;22548;-81
2022/05/08 08:22:30;;;;;;;22.70;20.60;;;;;;;18.48;66.74;98545.08;105117;1288;25930;-82
2022/05/08 08:24:59;;;;;;;23.10;20.80;;;;;;;18.59;65.12;98549.43;104996;1288;22563;-82
2022/05/08 08:27:28;;;;;;;21.20;18.90;;;;;;;18.62;65.33;98545.55;104965;1288;22702;-81
2022/05/08 08:29:56;;;;;;;21.10;19.10;;;;;;;18.69;65.40;98547.60;105022;1288;24258;-82
2022/05/08 08:32:26;;;;;;;19.70;18.00;;;;;;;18.76;64.60;98549.42;104965;1288;22599;-81
2022/05/08 08:34:54;;;;;;;19.60;17.40;;;;;;;18.83;64.47;98546.17;104916;1288;25307;-81
2022/05/08 08:37:22;;;;;;;19.30;17.40;;;;;;;18.91;64.24;98543.77;104969;1288;22548;-84
2022/05/08 08:39:50;;;;;;;20.00;17.90;;;;;;;19.01;63.98;98545.95;104988;1288;24274;-82
2022/05/08 08:42:29;;;;;;;20.60;18.60;;;;;;;19.10;63.23;98545.20;105072;1288;25501;-82
2022/05/08 08:48:05;;;;;;;20.20;16.60;;;;;;;19.16;62.10;98546.48;104952;1288;22570;-80
2022/05/08 08:50:34;;;;;;;18.10;16.10;;;;;;;19.23;62.18;98549.23;105004;1290;25263;-82
2022/05/08 08:53:06;;;;;;;15.80;14.30;;;;;;;19.33;62.42;98549.17;104937;1288;25371;-81
2022/05/08 08:55:34;;;;;;;14.80;13.30;;;;;;;19.50;62.35;98549.63;105279;1289;22548;-81
2022/05/08 08:58:02;;;;;;;16.10;14.60;;;;;;;19.64;61.38;98548.43;105219;1288;25602;-81
2022/05/08 09:00:34;;;;;;;17.10;15.40;;;;;;;19.76;60.96;98547.02;105224;1288;22736;-82
2022/05/08 09:03:02;;;;;;;16.60;15.00;;;;;;;19.92;60.25;98546.44;105328;1288;22721;-81
2022/05/08 09:05:32;;;;;;;19.40;17.40;;;;;;;20.03;60.21;98546.92;105126;1288;22594;-82
2022/05/08 09:08:00;;;;;;;19.00;17.10;;;;;;;20.17;59.90;98552.17;105075;1288;24248;-81
2022/05/08 09:10:35;;;;;;;18.20;16.50;;;;;;;20.24;59.42;98551.60;105003;1288;22560;-83
2022/05/08 09:13:06;;;;;;;17.10;15.50;;;;;;;20.23;59.43;98553.23;104941;1288;24130;-82
2022/05/08 09:15:38;;;;;;;18.00;15.80;;;;;;;20.25;59.38;98550.85;105353;1288;25349;-82
2022/05/08 09:18:08;;;;;;;16.40;14.60;;;;;;;20.32;59.07;98553.24;105525;1288;25903;-81
2022/05/08 09:20:36;;;;;;;15.30;13.70;;;;;;;20.34;58.75;98551.42;105126;1288;24329;-81
2022/05/08 09:23:09;;;;;;;17.70;14.40;;;;;;;20.34;58.12;98548.30;104979;1288;24116;-82
2022/05/08 09:25:51;;;;;;;15.50;13.50;;;;;;;20.26;57.86;98548.99;105020;1288;24441;-83
2022/05/08 09:28:44;;;;;;;15.20;13.70;;;;;;;20.18;57.99;98552.61;105019;1288;22562;-83
2022/05/08 09:31:18;;;;;;;15.30;13.90;;;;;;;20.17;57.84;98547.42;105028;1288;25392;-80
2022/05/08 09:33:51;;;;;;;21.50;14.60;;;;;;;20.15;57.72;98547.98;105057;1288;22899;-81
2022/05/08 09:36:21;;;;;;;15.30;13.70;;;;;;;20.17;57.19;98545.31;105090;1289;25375;-82
2022/05/08 09:39:00;;;;;;;16.90;14.00;;;;;;;20.15;57.20;98544.30;105003;1289;22570;-82
2022/05/08 09:41:39;;;;;;;15.60;14.00;;;;;;;20.19;57.10;98539.90;104950;1288;22568;-82
2022/05/08 09:44:14;;;;;;;15.90;14.20;;;;;;;20.26;57.03;98540.48;104896;1290;22569;-83
2022/05/08 09:46:48;;;;;;;16.50;14.90;;;;;;;20.24;56.51;98538.77;104935;1287;23222;-82
2022/05/08 09:49:21;;;;;;;17.30;15.00;;;;;;;20.15;56.26;98536.09;105083;1288;24518;-82
2022/05/08 09:51:50;;;;;;;16.40;14.80;;;;;;;20.02;56.40;98536.58;104931;1290;22563;-82
2022/05/08 09:54:19;;;;;;;16.20;14.40;;;;;;;19.94;56.28;98538.38;104924;1288;22885;-82
2022/05/08 09:56:47;;;;;;;19.30;14.00;;;;;;;19.88;56.14;98538.52;104904;1288;22582;-82
2022/05/08 09:59:15;;;;;;;16.50;14.90;;;;;;;19.83;56.10;98538.36;104898;1288;22662;-82
2022/05/08 10:02:14;;;;;;;15.30;13.70;;;;;;;19.78;55.93;98532.03;104904;1288;22625;-82
2022/05/08 10:04:43;;;;;;;16.40;13.70;;;;;;;19.78;56.00;98532.97;104964;1288;23982;-81
2022/05/08 10:07:12;;;;;;;15.60;14.00;;;;;;;19.91;55.96;98529.83;104945;1288;22670;-82
2022/05/08 10:15:31;;;;;;;17.50;14.70;;;;;;;20.55;55.37;98528.09;104939;1288;22649;-81
2022/05/08 10:18:35;;;;;;;15.20;13.80;;;;;;;20.74;54.52;98522.92;104785;1288;185109;-82
2022/05/08 10:21:12;;;;;;;14.90;13.40;;;;;;;20.95;53.97;98519.55;104378;1294;22581;-82
2022/05/08 10:23:42;;;;;;;13.90;12.60;;;;;;;21.18;53.80;98516.43;104469;1294;24460;-84
2022/05/08 10:26:38;;;;;;;15.40;13.30;;;;;;;21.40;53.90;98513.77;104601;1293;22581;-83
2022/05/08 10:29:13;;;;;;;14.30;12.90;;;;;;;21.63;53.19;98512.84;104403;1294;27745;-81
2022/05/08 10:31:42;;;;;;;13.30;12.10;;;;;;;21.77;53.18;98507.98;104410;1294;22874;-83
2022/05/08 10:34:12;;;;;;;14.00;12.30;;;;;;;21.89;53.19;98509.65;104431;1294;22576;-82
2022/05/08 10:36:50;;;;;;;14.70;13.00;;;;;;;22.05;52.88;98504.58;104387;1294;24417;-82
2022/05/08 10:39:47;;;;;;;14.70;13.20;;;;;;;22.21;52.45;98502.77;104419;1294;22576;-82
2022/05/08 10:42:24;;;;;;;13.50;12.10;;;;;;;22.38;52.00;98503.89;104397;1294;23316;-82
2022/05/08 10:44:52;;;;;;;14.30;11.70;;;;;;;22.42;51.22;98498.88;104326;1294;24428;-83
2022/05/08 10:47:37;;;;;;;12.60;10.70;;;;;;;22.44;51.38;98499.69;104137;1294;22644;-85
2022/05/08 10:50:14;;;;;;;13.40;11.50;;;;;;;22.54;51.24;98495.09;104080;1294;22576;-84
2022/05/08 10:52:44;;;;;;;12.60;11.10;;;;;;;22.66;50.84;98493.89;104270;1294;25458;-81
2022/05/08 10:55:15;;;;;;;12.90;11.60;;;;;;;22.80;50.72;98493.36;104535;1288;23601;-81
2022/05/08 10:57:46;;;;;;;13.80;11.00;;;;;;;23.00;50.01;98490.52;104986;1288;24423;-82
2022/05/08 11:00:21;;;;;;;11.30;8.20;;;;;;;23.29;50.77;98492.58;104938;1288;23055;-82
2022/05/08 11:02:51;;;;;;;9.70;8.20;;;;;;;23.37;48.94;98487.81;105141;1288;25308;-81
2022/05/08 11:05:24;;;;;;;10.40;9.30;;;;;;;23.29;49.60;98486.45;104847;1288;24241;-81
2022/05/08 11:07:56;;;;;;;10.60;9.50;;;;;;;23.39;49.75;98484.16;105091;1287;22934;-83
2022/05/08 11:10:31;;;;;;;11.50;8.70;;;;;;;23.49;48.71;98480.39;104916;1288;22799;-80
2022/05/08 11:13:05;;;;;;;9.50;8.50;;;;;;;23.65;49.05;98473.85;105081;1288;22709;-81
2022/05/08 11:15:37;;;;;;;10.10;8.80;;;;;;;23.95;47.95;98475.23;105102;1288;23031;-83
2022/05/08 11:18:22;;;;;;;11.50;9.40;;;;;;;24.07;48.14;98479.00;104977;1288;22590;-81
2022/05/08 11:21:02;;;;;;;12.50;9.00;;;;;;;24.01;47.75;98477.98;105113;1288;22894;-82
2022/05/08 11:23:33;;;;;;;8.80;7.20;;;;;;;23.77;46.61;98474.75;105047;1288;25304;-82
2022/05/08 11:26:05;;;;;;;8.70;7.70;;;;;;;23.51;46.80;98469.95;105052;1288;22501;-82
2022/05/08 11:28:36;;;;;;;10.10;7.80;;;;;;;23.26;46.87;98469.11;105104;1288;24145;-82
2022/05/08 11:31:18;;;;;;;10.40;8.50;;;;;;;22.97;46.53;98472.63;105000;1288;22557;-81
2022/05/08 11:36:35;;;;;;;10.60;7.90;;;;;;;22.41;46.37;98467.69;105002;1288;24352;-81
2022/05/08 11:39:11;;;;;;;10.60;7.40;;;;;;;22.11;45.86;98467.23;104982;1288;22566;-82
2022/05/08 11:41:44;;;;;;;10.30;8.10;;;;;;;21.80;45.83;98469.95;104938;1288;24224;-82
2022/05/08 11:44:12;;;;;;;8.80;7.60;;;;;;;21.58;45.96;98466.42;105139;1288;22644;-81
2022/05/08 11:46:41;;;;;;;10.80;8.40;;;;;;;21.42;45.61;98470.11;104855;1291;22676;-82
2022/05/08 11:49:21;;;;;;;10.80;7.70;;;;;;;21.24;46.00;98470.86;105375;1288;24368;-81
2022/05/08 11:51:55;;;;;;;9.60;7.70;;;;;;;21.13;45.92;98472.72;105695;1288;25383;-82